sensor_id;sensor_type;location;lat;lon;timestamp;P1;durP1;ratioP1;P2;durP2;ratioP2
39778;SDS011;25454;49.878;8.618;2022-08-06T00:01:24;3.23;;;1.70;;
39778;SDS011;25454;49.878;8.618;2022-08-06T00:06:25;3.33;;;1.73;;
39778;SDS011;25454;49.878;8.618;2022-08-06T00:11:26;3.33;;;1.70;;
39778;SDS011;25454;49.878;8.618;2022-08-06T00:16:27;6.27;;;2.17;;
39778;SDS011;25454;49.878;8.618;2022-08-06T00:21:28;4.23;;;1.67;;
39778;SDS011;25454;49.878;8.618;2022-08-06T00:26:32;3.37;;;1.63;;
39778;SDS011;25454;49.878;8.618;2022-08-06T00:31:33;5.57;;;1.90;;
39778;SDS011;25454;49.878;8.618;2022-08-06T00:36:34;2.03;;;1.50;;
39778;SDS011;25454;49.878;8.618;2022-08-06T00:41:36;4.37;;;1.73;;
39778;SDS011;25454;49.878;8.618;2022-08-06T00:46:38;2.73;;;1.60;;
39778;SDS011;25454;49.878;8.618;2022-08-06T00:51:39;2.57;;;1.40;;
39778;SDS011;25454;49.878;8.618;2022-08-06T00:56:40;2.27;;;1.40;;
39778;SDS011;25454;49.878;8.618;2022-08-06T01:01:41;3.97;;;1.60;;
39778;SDS011;25454;49.878;8.618;2022-08-06T01:06:42;2.77;;;1.70;;
39778;SDS011;25454;49.878;8.618;2022-08-06T01:11:43;2.47;;;1.53;;
39778;SDS011;25454;49.878;8.618;2022-08-06T01:16:51;3.67;;;1.67;;
39778;SDS011;25454;49.878;8.618;2022-08-06T01:32:52;3.30;;;1.20;;
39778;SDS011;25454;49.878;8.618;2022-08-06T01:43:01;3.30;;;1.30;;
39778;SDS011;25454;49.878;8.618;2022-08-06T01:48:04;2.30;;;1.30;;
39778;SDS011;25454;49.878;8.618;2022-08-06T01:53:08;2.47;;;1.27;;
39778;SDS011;25454;49.878;8.618;2022-08-06T01:58:12;2.70;;;0.97;;
39778;SDS011;25454;49.878;8.618;2022-08-06T02:03:16;2.70;;;1.10;;
39778;SDS011;25454;49.878;8.618;2022-08-06T02:08:18;1.87;;;1.47;;
39778;SDS011;25454;49.878;8.618;2022-08-06T02:13:21;3.13;;;1.40;;
39778;SDS011;25454;49.878;8.618;2022-08-06T02:18:22;4.40;;;1.10;;
39778;SDS011;25454;49.878;8.618;2022-08-06T02:23:24;2.27;;;1.20;;
39778;SDS011;25454;49.878;8.618;2022-08-06T02:28:26;3.13;;;1.23;;
39778;SDS011;25454;49.878;8.618;2022-08-06T02:33:28;2.10;;;1.13;;
39778;SDS011;25454;49.878;8.618;2022-08-06T02:38:46;3.33;;;1.30;;
39778;SDS011;25454;49.878;8.618;2022-08-06T02:43:51;5.80;;;1.50;;
39778;SDS011;25454;49.878;8.618;2022-08-06T02:48:58;2.70;;;1.33;;
39778;SDS011;25454;49.878;8.618;2022-08-06T02:54:03;4.37;;;1.67;;
39778;SDS011;25454;49.878;8.618;2022-08-06T02:59:05;3.30;;;1.60;;
39778;SDS011;25454;49.878;8.618;2022-08-06T03:04:08;3.27;;;1.53;;
39778;SDS011;25454;49.878;8.618;2022-08-06T03:09:09;2.83;;;1.53;;
39778;SDS011;25454;49.878;8.618;2022-08-06T03:14:14;1.90;;;1.27;;
39778;SDS011;25454;49.878;8.618;2022-08-06T03:19:15;3.33;;;1.07;;
39778;SDS011;25454;49.878;8.618;2022-08-06T03:24:18;4.23;;;1.20;;
39778;SDS011;25454;49.878;8.618;2022-08-06T03:29:20;1.23;;;1.13;;
39778;SDS011;25454;49.878;8.618;2022-08-06T03:34:21;1.30;;;1.00;;
39778;SDS011;25454;49.878;8.618;2022-08-06T03:39:23;2.63;;;1.10;;
39778;SDS011;25454;49.878;8.618;2022-08-06T03:44:28;1.00;;;1.00;;
39778;SDS011;25454;49.878;8.618;2022-08-06T03:49:35;1.33;;;1.10;;
39778;SDS011;25454;49.878;8.618;2022-08-06T03:54:38;1.87;;;0.90;;
39778;SDS011;25454;49.878;8.618;2022-08-06T03:59:42;3.17;;;1.30;;
39778;SDS011;25454;49.878;8.618;2022-08-06T04:04:43;2.80;;;1.00;;
39778;SDS011;25454;49.878;8.618;2022-08-06T04:09:45;1.10;;;0.87;;
39778;SDS011;25454;49.878;8.618;2022-08-06T04:14:47;1.47;;;1.00;;
39778;SDS011;25454;49.878;8.618;2022-08-06T04:19:54;1.23;;;1.10;;
39778;SDS011;25454;49.878;8.618;2022-08-06T04:24:55;3.07;;;1.00;;
39778;SDS011;25454;49.878;8.618;2022-08-06T04:29:56;1.80;;;1.00;;
39778;SDS011;25454;49.878;8.618;2022-08-06T04:35:02;2.10;;;1.10;;
39778;SDS011;25454;49.878;8.618;2022-08-06T04:40:03;2.87;;;1.53;;
39778;SDS011;25454;49.878;8.618;2022-08-06T04:45:06;2.23;;;1.10;;
39778;SDS011;25454;49.878;8.618;2022-08-06T04:50:11;2.83;;;1.63;;
39778;SDS011;25454;49.878;8.618;2022-08-06T04:55:12;4.03;;;1.00;;
39778;SDS011;25454;49.878;8.618;2022-08-06T05:00:13;1.73;;;1.00;;
39778;SDS011;25454;49.878;8.618;2022-08-06T05:05:14;2.77;;;1.00;;
39778;SDS011;25454;49.878;8.618;2022-08-06T05:10:17;1.90;;;1.10;;
39778;SDS011;25454;49.878;8.618;2022-08-06T05:15:53;3.83;;;1.27;;
39778;SDS011;25454;49.878;8.618;2022-08-06T05:20:49;3.47;;;0.90;;
39778;SDS011;25454;49.878;8.618;2022-08-06T05:25:50;5.07;;;0.93;;
39778;SDS011;25454;49.878;8.618;2022-08-06T05:30:51;4.83;;;0.97;;
39778;SDS011;25454;49.878;8.618;2022-08-06T05:35:53;3.30;;;0.80;;
39778;SDS011;25454;49.878;8.618;2022-08-06T05:40:54;4.40;;;1.10;;
39778;SDS011;25454;49.878;8.618;2022-08-06T05:45:57;3.03;;;1.10;;
39778;SDS011;25454;49.878;8.618;2022-08-06T05:51:09;4.57;;;1.10;;
39778;SDS011;25454;49.878;8.618;2022-08-06T05:56:18;1.67;;;0.97;;
39778;SDS011;25454;49.878;8.618;2022-08-06T06:01:21;1.50;;;0.77;;
39778;SDS011;25454;49.878;8.618;2022-08-06T06:06:23;3.03;;;1.10;;
39778;SDS011;25454;49.878;8.618;2022-08-06T06:11:26;2.47;;;0.93;;
39778;SDS011;25454;49.878;8.618;2022-08-06T06:16:27;7.63;;;1.00;;
39778;SDS011;25454;49.878;8.618;2022-08-06T06:37:04;4.90;;;1.20;;
39778;SDS011;25454;49.878;8.618;2022-08-06T06:42:20;3.30;;;1.40;;
39778;SDS011;25454;49.878;8.618;2022-08-06T06:47:25;2.17;;;0.80;;
39778;SDS011;25454;49.878;8.618;2022-08-06T06:52:30;2.87;;;1.20;;
39778;SDS011;25454;49.878;8.618;2022-08-06T06:57:35;3.37;;;1.20;;
39778;SDS011;25454;49.878;8.618;2022-08-06T07:02:37;3.33;;;0.73;;
39778;SDS011;25454;49.878;8.618;2022-08-06T07:07:42;4.90;;;1.50;;
39778;SDS011;25454;49.878;8.618;2022-08-06T07:12:46;5.03;;;1.13;;
39778;SDS011;25454;49.878;8.618;2022-08-06T07:17:47;4.43;;;0.90;;
39778;SDS011;25454;49.878;8.618;2022-08-06T07:22:50;2.77;;;1.03;;
39778;SDS011;25454;49.878;8.618;2022-08-06T07:27:53;1.57;;;0.87;;
39778;SDS011;25454;49.878;8.618;2022-08-06T07:32:54;4.13;;;1.07;;
39778;SDS011;25454;49.878;8.618;2022-08-06T07:43:00;3.77;;;0.83;;
39778;SDS011;25454;49.878;8.618;2022-08-06T07:48:11;1.47;;;0.70;;
39778;SDS011;25454;49.878;8.618;2022-08-06T07:53:12;2.67;;;0.70;;
39778;SDS011;25454;49.878;8.618;2022-08-06T07:58:15;1.73;;;0.70;;
39778;SDS011;25454;49.878;8.618;2022-08-06T08:03:17;5.30;;;1.00;;
39778;SDS011;25454;49.878;8.618;2022-08-06T08:08:37;6.63;;;0.97;;
39778;SDS011;25454;49.878;8.618;2022-08-06T08:13:38;1.23;;;0.57;;
39778;SDS011;25454;49.878;8.618;2022-08-06T08:18:39;5.67;;;1.27;;
39778;SDS011;25454;49.878;8.618;2022-08-06T08:23:41;3.43;;;0.73;;
39778;SDS011;25454;49.878;8.618;2022-08-06T08:28:43;2.67;;;0.60;;
39778;SDS011;25454;49.878;8.618;2022-08-06T08:33:44;8.13;;;1.03;;
39778;SDS011;25454;49.878;8.618;2022-08-06T08:38:45;3.77;;;1.27;;
39778;SDS011;25454;49.878;8.618;2022-08-06T08:43:51;1.53;;;0.70;;
39778;SDS011;25454;49.878;8.618;2022-08-06T08:48:54;5.83;;;1.20;;
39778;SDS011;25454;49.878;8.618;2022-08-06T08:53:56;2.00;;;0.77;;
39778;SDS011;25454;49.878;8.618;2022-08-06T08:59:04;2.33;;;1.03;;
39778;SDS011;25454;49.878;8.618;2022-08-06T09:04:06;4.00;;;1.00;;
39778;SDS011;25454;49.878;8.618;2022-08-06T09:09:07;5.53;;;1.20;;
39778;SDS011;25454;49.878;8.618;2022-08-06T09:14:08;1.87;;;1.00;;
39778;SDS011;25454;49.878;8.618;2022-08-06T09:19:10;4.70;;;1.07;;
39778;SDS011;25454;49.878;8.618;2022-08-06T09:24:11;3.37;;;0.80;;
39778;SDS011;25454;49.878;8.618;2022-08-06T09:29:21;2.27;;;0.90;;
39778;SDS011;25454;49.878;8.618;2022-08-06T09:34:30;1.70;;;0.70;;
39778;SDS011;25454;49.878;8.618;2022-08-06T09:39:35;3.03;;;1.00;;
39778;SDS011;25454;49.878;8.618;2022-08-06T09:44:39;2.10;;;0.93;;
39778;SDS011;25454;49.878;8.618;2022-08-06T09:49:43;3.20;;;0.90;;
39778;SDS011;25454;49.878;8.618;2022-08-06T09:54:45;0.87;;;0.47;;
39778;SDS011;25454;49.878;8.618;2022-08-06T09:59:48;1.77;;;0.90;;
39778;SDS011;25454;49.878;8.618;2022-08-06T10:04:49;2.23;;;0.90;;
39778;SDS011;25454;49.878;8.618;2022-08-06T10:09:59;1.23;;;0.67;;
39778;SDS011;25454;49.878;8.618;2022-08-06T10:15:00;2.10;;;0.87;;
39778;SDS011;25454;49.878;8.618;2022-08-06T10:20:05;5.70;;;1.10;;
39778;SDS011;25454;49.878;8.618;2022-08-06T10:25:07;3.33;;;1.00;;
39778;SDS011;25454;49.878;8.618;2022-08-06T10:30:09;2.00;;;0.77;;
39778;SDS011;25454;49.878;8.618;2022-08-06T10:35:10;1.17;;;0.50;;
39778;SDS011;25454;49.878;8.618;2022-08-06T10:40:15;1.20;;;0.60;;
39778;SDS011;25454;49.878;8.618;2022-08-06T10:45:17;1.70;;;1.00;;
39778;SDS011;25454;49.878;8.618;2022-08-06T10:50:18;1.10;;;0.80;;
39778;SDS011;25454;49.878;8.618;2022-08-06T10:55:20;2.27;;;0.90;;
39778;SDS011;25454;49.878;8.618;2022-08-06T11:00:21;1.27;;;0.70;;
39778;SDS011;25454;49.878;8.618;2022-08-06T11:05:25;1.43;;;0.80;;
39778;SDS011;25454;49.878;8.618;2022-08-06T11:10:34;3.67;;;0.70;;
39778;SDS011;25454;49.878;8.618;2022-08-06T11:15:38;2.40;;;1.13;;
39778;SDS011;25454;49.878;8.618;2022-08-06T11:20:42;2.77;;;0.60;;
39778;SDS011;25454;49.878;8.618;2022-08-06T11:25:44;2.53;;;0.60;;
39778;SDS011;25454;49.878;8.618;2022-08-06T11:30:47;2.17;;;0.87;;
39778;SDS011;25454;49.878;8.618;2022-08-06T11:35:49;2.67;;;0.70;;
39778;SDS011;25454;49.878;8.618;2022-08-06T11:41:00;1.80;;;0.60;;
39778;SDS011;25454;49.878;8.618;2022-08-06T12:02:04;2.83;;;0.73;;
39778;SDS011;25454;49.878;8.618;2022-08-06T12:07:25;1.53;;;0.67;;
39778;SDS011;25454;49.878;8.618;2022-08-06T12:17:28;2.50;;;0.80;;
39778;SDS011;25454;49.878;8.618;2022-08-06T12:22:30;2.93;;;0.83;;
39778;SDS011;25454;49.878;8.618;2022-08-06T12:27:32;1.40;;;0.83;;
39778;SDS011;25454;49.878;8.618;2022-08-06T12:32:34;2.33;;;0.77;;
39778;SDS011;25454;49.878;8.618;2022-08-06T12:37:57;1.30;;;0.70;;
39778;SDS011;25454;49.878;8.618;2022-08-06T12:48:04;1.70;;;0.80;;
39778;SDS011;25454;49.878;8.618;2022-08-06T12:53:07;1.70;;;0.40;;
39778;SDS011;25454;49.878;8.618;2022-08-06T12:58:10;3.03;;;0.77;;
39778;SDS011;25454;49.878;8.618;2022-08-06T13:03:11;1.03;;;0.60;;
39778;SDS011;25454;49.878;8.618;2022-08-06T13:08:13;2.67;;;0.80;;
39778;SDS011;25454;49.878;8.618;2022-08-06T13:13:14;1.43;;;0.60;;
39778;SDS011;25454;49.878;8.618;2022-08-06T13:18:16;0.60;;;0.50;;
39778;SDS011;25454;49.878;8.618;2022-08-06T13:23:27;2.90;;;0.70;;
39778;SDS011;25454;49.878;8.618;2022-08-06T13:28:28;2.50;;;0.63;;
39778;SDS011;25454;49.878;8.618;2022-08-06T13:33:29;2.97;;;0.70;;
39778;SDS011;25454;49.878;8.618;2022-08-06T13:38:32;3.80;;;0.70;;
39778;SDS011;25454;49.878;8.618;2022-08-06T13:43:37;1.23;;;0.70;;
39778;SDS011;25454;49.878;8.618;2022-08-06T13:48:49;1.87;;;1.00;;
39778;SDS011;25454;49.878;8.618;2022-08-06T13:53:50;0.97;;;0.50;;
39778;SDS011;25454;49.878;8.618;2022-08-06T13:58:52;2.40;;;0.73;;
39778;SDS011;25454;49.878;8.618;2022-08-06T14:03:53;3.77;;;0.70;;
39778;SDS011;25454;49.878;8.618;2022-08-06T14:08:54;2.50;;;1.00;;
39778;SDS011;25454;49.878;8.618;2022-08-06T14:13:58;1.50;;;0.70;;
39778;SDS011;25454;49.878;8.618;2022-08-06T14:18:58;1.13;;;0.67;;
39778;SDS011;25454;49.878;8.618;2022-08-06T14:24:00;1.10;;;0.50;;
39778;SDS011;25454;49.878;8.618;2022-08-06T14:29:01;1.27;;;0.60;;
39778;SDS011;25454;49.878;8.618;2022-08-06T14:34:03;1.50;;;0.60;;
39778;SDS011;25454;49.878;8.618;2022-08-06T14:39:04;2.53;;;0.50;;
39778;SDS011;25454;49.878;8.618;2022-08-06T14:44:06;1.80;;;0.60;;
39778;SDS011;25454;49.878;8.618;2022-08-06T14:49:26;1.60;;;0.63;;
39778;SDS011;25454;49.878;8.618;2022-08-06T14:54:28;3.90;;;0.70;;
39778;SDS011;25454;49.878;8.618;2022-08-06T14:59:29;3.07;;;0.50;;
39778;SDS011;25454;49.878;8.618;2022-08-06T15:04:30;0.73;;;0.60;;
39778;SDS011;25454;49.878;8.618;2022-08-06T15:09:31;2.27;;;0.53;;
39778;SDS011;25454;49.878;8.618;2022-08-06T15:14:33;4.97;;;0.80;;
39778;SDS011;25454;49.878;8.618;2022-08-06T15:19:34;0.87;;;0.50;;
39778;SDS011;25454;49.878;8.618;2022-08-06T15:24:37;3.07;;;0.60;;
39778;SDS011;25454;49.878;8.618;2022-08-06T15:29:38;2.00;;;0.50;;
39778;SDS011;25454;49.878;8.618;2022-08-06T15:34:42;0.90;;;0.70;;
39778;SDS011;25454;49.878;8.618;2022-08-06T15:39:43;1.90;;;0.50;;
39778;SDS011;25454;49.878;8.618;2022-08-06T15:44:44;3.80;;;0.80;;
39778;SDS011;25454;49.878;8.618;2022-08-06T15:49:45;0.60;;;0.40;;
39778;SDS011;25454;49.878;8.618;2022-08-06T15:54:46;1.27;;;0.53;;
39778;SDS011;25454;49.878;8.618;2022-08-06T15:59:48;2.27;;;0.67;;
39778;SDS011;25454;49.878;8.618;2022-08-06T16:04:51;0.77;;;0.30;;
39778;SDS011;25454;49.878;8.618;2022-08-06T16:09:52;2.60;;;0.80;;
39778;SDS011;25454;49.878;8.618;2022-08-06T16:14:55;1.70;;;0.67;;
39778;SDS011;25454;49.878;8.618;2022-08-06T16:19:56;2.67;;;0.87;;
39778;SDS011;25454;49.878;8.618;2022-08-06T16:24:57;0.80;;;0.50;;
39778;SDS011;25454;49.878;8.618;2022-08-06T16:29:59;0.77;;;0.50;;
39778;SDS011;25454;49.878;8.618;2022-08-06T16:35:01;1.30;;;0.60;;
39778;SDS011;25454;49.878;8.618;2022-08-06T16:40:02;2.10;;;0.73;;
39778;SDS011;25454;49.878;8.618;2022-08-06T16:45:04;1.13;;;0.60;;
39778;SDS011;25454;49.878;8.618;2022-08-06T16:50:05;0.97;;;0.60;;
39778;SDS011;25454;49.878;8.618;2022-08-06T16:55:07;1.63;;;0.40;;
39778;SDS011;25454;49.878;8.618;2022-08-06T17:00:09;1.30;;;0.50;;
39778;SDS011;25454;49.878;8.618;2022-08-06T17:05:17;1.83;;;0.57;;
39778;SDS011;25454;49.878;8.618;2022-08-06T17:10:23;1.30;;;0.73;;
39778;SDS011;25454;49.878;8.618;2022-08-06T17:15:25;2.57;;;0.60;;
39778;SDS011;25454;49.878;8.618;2022-08-06T17:20:26;1.93;;;0.70;;
39778;SDS011;25454;49.878;8.618;2022-08-06T17:25:27;2.03;;;0.83;;
39778;SDS011;25454;49.878;8.618;2022-08-06T17:30:28;2.40;;;0.70;;
39778;SDS011;25454;49.878;8.618;2022-08-06T17:35:29;2.23;;;0.60;;
39778;SDS011;25454;49.878;8.618;2022-08-06T17:40:31;1.33;;;0.50;;
39778;SDS011;25454;49.878;8.618;2022-08-06T17:45:32;0.80;;;0.50;;
39778;SDS011;25454;49.878;8.618;2022-08-06T17:50:34;2.97;;;0.50;;
39778;SDS011;25454;49.878;8.618;2022-08-06T17:55:35;1.57;;;0.70;;
39778;SDS011;25454;49.878;8.618;2022-08-06T18:00:36;3.50;;;0.60;;
39778;SDS011;25454;49.878;8.618;2022-08-06T18:05:37;3.00;;;0.63;;
39778;SDS011;25454;49.878;8.618;2022-08-06T18:10:38;1.30;;;1.10;;
39778;SDS011;25454;49.878;8.618;2022-08-06T18:15:40;1.17;;;0.80;;
39778;SDS011;25454;49.878;8.618;2022-08-06T18:20:41;2.30;;;0.70;;
39778;SDS011;25454;49.878;8.618;2022-08-06T18:25:42;1.73;;;0.90;;
39778;SDS011;25454;49.878;8.618;2022-08-06T18:30:43;2.53;;;0.77;;
39778;SDS011;25454;49.878;8.618;2022-08-06T18:35:45;3.20;;;0.63;;
39778;SDS011;25454;49.878;8.618;2022-08-06T18:40:46;1.83;;;0.63;;
39778;SDS011;25454;49.878;8.618;2022-08-06T18:45:53;2.03;;;0.60;;
39778;SDS011;25454;49.878;8.618;2022-08-06T18:50:56;1.07;;;0.60;;
39778;SDS011;25454;49.878;8.618;2022-08-06T18:55:57;1.20;;;0.43;;
39778;SDS011;25454;49.878;8.618;2022-08-06T19:00:59;2.00;;;0.83;;
39778;SDS011;25454;49.878;8.618;2022-08-06T19:06:00;1.20;;;0.50;;
39778;SDS011;25454;49.878;8.618;2022-08-06T19:11:01;1.67;;;0.70;;
39778;SDS011;25454;49.878;8.618;2022-08-06T19:16:02;1.73;;;0.57;;
39778;SDS011;25454;49.878;8.618;2022-08-06T19:21:04;1.17;;;0.70;;
39778;SDS011;25454;49.878;8.618;2022-08-06T19:26:07;1.63;;;0.50;;
39778;SDS011;25454;49.878;8.618;2022-08-06T19:31:08;2.47;;;0.40;;
39778;SDS011;25454;49.878;8.618;2022-08-06T19:36:09;1.73;;;0.70;;
39778;SDS011;25454;49.878;8.618;2022-08-06T19:41:11;1.10;;;0.70;;
39778;SDS011;25454;49.878;8.618;2022-08-06T19:46:12;1.67;;;0.90;;
39778;SDS011;25454;49.878;8.618;2022-08-06T19:51:14;1.13;;;0.60;;
39778;SDS011;25454;49.878;8.618;2022-08-06T19:56:18;1.07;;;0.70;;
39778;SDS011;25454;49.878;8.618;2022-08-06T20:01:19;0.87;;;0.50;;
39778;SDS011;25454;49.878;8.618;2022-08-06T20:06:20;1.40;;;0.80;;
39778;SDS011;25454;49.878;8.618;2022-08-06T20:11:21;1.00;;;0.60;;
39778;SDS011;25454;49.878;8.618;2022-08-06T20:16:22;3.47;;;0.90;;
39778;SDS011;25454;49.878;8.618;2022-08-06T20:21:23;5.23;;;0.77;;
39778;SDS011;25454;49.878;8.618;2022-08-06T20:26:24;1.70;;;0.80;;
39778;SDS011;25454;49.878;8.618;2022-08-06T20:31:25;1.57;;;0.70;;
39778;SDS011;25454;49.878;8.618;2022-08-06T20:36:27;6.23;;;0.93;;
39778;SDS011;25454;49.878;8.618;2022-08-06T20:41:29;2.40;;;0.80;;
39778;SDS011;25454;49.878;8.618;2022-08-06T20:46:30;2.10;;;0.67;;
39778;SDS011;25454;49.878;8.618;2022-08-06T20:51:32;1.23;;;0.73;;
39778;SDS011;25454;49.878;8.618;2022-08-06T20:56:33;0.90;;;0.70;;
39778;SDS011;25454;49.878;8.618;2022-08-06T21:01:40;0.90;;;0.53;;
39778;SDS011;25454;49.878;8.618;2022-08-06T21:06:41;1.30;;;0.53;;
39778;SDS011;25454;49.878;8.618;2022-08-06T21:11:42;2.43;;;0.63;;
39778;SDS011;25454;49.878;8.618;2022-08-06T21:16:43;1.73;;;0.80;;
39778;SDS011;25454;49.878;8.618;2022-08-06T21:21:44;2.77;;;0.50;;
39778;SDS011;25454;49.878;8.618;2022-08-06T21:26:45;1.93;;;0.73;;
39778;SDS011;25454;49.878;8.618;2022-08-06T21:31:46;2.27;;;0.80;;
39778;SDS011;25454;49.878;8.618;2022-08-06T21:36:47;1.20;;;0.70;;
39778;SDS011;25454;49.878;8.618;2022-08-06T21:41:51;1.93;;;0.73;;
39778;SDS011;25454;49.878;8.618;2022-08-06T21:46:52;1.30;;;0.70;;
39778;SDS011;25454;49.878;8.618;2022-08-06T21:51:53;2.70;;;0.77;;
39778;SDS011;25454;49.878;8.618;2022-08-06T21:56:54;0.83;;;0.37;;
39778;SDS011;25454;49.878;8.618;2022-08-06T22:01:55;4.53;;;0.70;;
39778;SDS011;25454;49.878;8.618;2022-08-06T22:06:56;2.20;;;0.87;;
39778;SDS011;25454;49.878;8.618;2022-08-06T22:11:57;0.90;;;0.40;;
39778;SDS011;25454;49.878;8.618;2022-08-06T22:16:59;4.03;;;0.63;;
39778;SDS011;25454;49.878;8.618;2022-08-06T22:22:00;1.40;;;0.50;;
39778;SDS011;25454;49.878;8.618;2022-08-06T22:27:05;0.80;;;0.53;;
39778;SDS011;25454;49.878;8.618;2022-08-06T22:32:06;2.40;;;0.43;;
39778;SDS011;25454;49.878;8.618;2022-08-06T22:37:08;2.07;;;0.50;;
39778;SDS011;25454;49.878;8.618;2022-08-06T22:42:09;1.33;;;0.70;;
39778;SDS011;25454;49.878;8.618;2022-08-06T22:47:10;3.93;;;0.70;;
39778;SDS011;25454;49.878;8.618;2022-08-06T22:52:11;0.83;;;0.67;;
39778;SDS011;25454;49.878;8.618;2022-08-06T22:57:12;1.40;;;0.50;;
39778;SDS011;25454;49.878;8.618;2022-08-06T23:02:13;1.70;;;0.80;;
39778;SDS011;25454;49.878;8.618;2022-08-06T23:07:15;0.90;;;0.50;;
39778;SDS011;25454;49.878;8.618;2022-08-06T23:12:19;1.00;;;0.70;;
39778;SDS011;25454;49.878;8.618;2022-08-06T23:17:21;1.00;;;0.80;;
39778;SDS011;25454;49.878;8.618;2022-08-06T23:22:22;4.83;;;0.80;;
39778;SDS011;25454;49.878;8.618;2022-08-06T23:27:26;1.60;;;0.70;;
39778;SDS011;25454;49.878;8.618;2022-08-06T23:32:27;0.70;;;0.50;;
39778;SDS011;25454;49.878;8.618;2022-08-06T23:37:28;3.43;;;0.70;;
39778;SDS011;25454;49.878;8.618;2022-08-06T23:42:30;2.07;;;0.87;;
39778;SDS011;25454;49.878;8.618;2022-08-06T23:47:31;3.30;;;1.00;;
39778;SDS011;25454;49.878;8.618;2022-08-06T23:52:35;1.60;;;0.70;;
39778;SDS011;25454;49.878;8.618;2022-08-06T23:57:36;0.90;;;0.70;;
